sensor_id;sensor_type;location;lat;lon;timestamp;P1;durP1;ratioP1;P2;durP2;ratioP2
7479;SDS011;3781;42.272;22.658;2023-04-10T00:00:18;2.47;;;1.43;;
7479;SDS011;3781;42.272;22.658;2023-04-10T00:02:46;2.90;;;1.43;;
7479;SDS011;3781;42.272;22.658;2023-04-10T00:05:15;1.43;;;1.17;;
7479;SDS011;3781;42.272;22.658;2023-04-10T00:07:41;5.03;;;2.53;;
7479;SDS011;3781;42.272;22.658;2023-04-10T00:10:09;1.93;;;1.57;;
7479;SDS011;3781;42.272;22.658;2023-04-10T00:12:36;3.10;;;2.13;;
7479;SDS011;3781;42.272;22.658;2023-04-10T00:15:03;1.83;;;1.63;;
7479;SDS011;3781;42.272;22.658;2023-04-10T00:17:30;3.43;;;1.40;;
7479;SDS011;3781;42.272;22.658;2023-04-10T00:19:57;3.00;;;1.53;;
7479;SDS011;3781;42.272;22.658;2023-04-10T00:22:26;9.47;;;1.87;;
7479;SDS011;3781;42.272;22.658;2023-04-10T00:24:54;4.07;;;1.83;;
7479;SDS011;3781;42.272;22.658;2023-04-10T00:27:20;1.23;;;1.13;;
7479;SDS011;3781;42.272;22.658;2023-04-10T00:29:47;2.80;;;1.27;;
7479;SDS011;3781;42.272;22.658;2023-04-10T00:32:14;1.67;;;1.57;;
7479;SDS011;3781;42.272;22.658;2023-04-10T00:34:41;2.57;;;1.20;;
7479;SDS011;3781;42.272;22.658;2023-04-10T00:37:07;1.27;;;1.17;;
7479;SDS011;3781;42.272;22.658;2023-04-10T00:39:36;8.30;;;2.00;;
7479;SDS011;3781;42.272;22.658;2023-04-10T00:42:03;1.33;;;1.13;;
7479;SDS011;3781;42.272;22.658;2023-04-10T00:44:33;2.00;;;1.30;;
7479;SDS011;3781;42.272;22.658;2023-04-10T00:47:01;1.10;;;1.00;;
7479;SDS011;3781;42.272;22.658;2023-04-10T00:49:29;0.70;;;0.60;;
7479;SDS011;3781;42.272;22.658;2023-04-10T00:51:56;10.97;;;3.57;;
7479;SDS011;3781;42.272;22.658;2023-04-10T00:54:22;4.87;;;2.40;;
7479;SDS011;3781;42.272;22.658;2023-04-10T00:56:50;2.87;;;2.03;;
7479;SDS011;3781;42.272;22.658;2023-04-10T00:59:17;3.63;;;3.33;;
7479;SDS011;3781;42.272;22.658;2023-04-10T01:01:44;1.63;;;1.53;;
7479;SDS011;3781;42.272;22.658;2023-04-10T01:04:11;1.77;;;1.40;;
7479;SDS011;3781;42.272;22.658;2023-04-10T01:06:44;5.17;;;1.53;;
7479;SDS011;3781;42.272;22.658;2023-04-10T01:09:19;1.57;;;1.10;;
7479;SDS011;3781;42.272;22.658;2023-04-10T01:12:01;6.23;;;2.10;;
7479;SDS011;3781;42.272;22.658;2023-04-10T01:14:36;1.70;;;0.90;;
7479;SDS011;3781;42.272;22.658;2023-04-10T01:17:13;2.40;;;1.50;;
7479;SDS011;3781;42.272;22.658;2023-04-10T01:19:56;3.00;;;2.20;;
7479;SDS011;3781;42.272;22.658;2023-04-10T01:22:35;2.07;;;1.13;;
7479;SDS011;3781;42.272;22.658;2023-04-10T01:25:16;2.13;;;1.93;;
7479;SDS011;3781;42.272;22.658;2023-04-10T01:28:00;1.27;;;1.03;;
7479;SDS011;3781;42.272;22.658;2023-04-10T01:30:38;2.73;;;1.33;;
7479;SDS011;3781;42.272;22.658;2023-04-10T01:33:06;2.07;;;1.40;;
7479;SDS011;3781;42.272;22.658;2023-04-10T01:35:38;3.33;;;1.87;;
7479;SDS011;3781;42.272;22.658;2023-04-10T01:38:08;2.23;;;1.10;;
7479;SDS011;3781;42.272;22.658;2023-04-10T01:40:37;2.70;;;1.10;;
7479;SDS011;3781;42.272;22.658;2023-04-10T01:43:07;5.00;;;1.77;;
7479;SDS011;3781;42.272;22.658;2023-04-10T01:45:35;3.93;;;2.83;;
7479;SDS011;3781;42.272;22.658;2023-04-10T01:48:07;2.57;;;1.90;;
7479;SDS011;3781;42.272;22.658;2023-04-10T01:50:35;3.03;;;2.00;;
7479;SDS011;3781;42.272;22.658;2023-04-10T01:53:02;3.40;;;2.27;;
7479;SDS011;3781;42.272;22.658;2023-04-10T01:55:31;2.00;;;1.40;;
7479;SDS011;3781;42.272;22.658;2023-04-10T01:58:00;3.33;;;1.73;;
7479;SDS011;3781;42.272;22.658;2023-04-10T02:00:28;4.37;;;2.10;;
7479;SDS011;3781;42.272;22.658;2023-04-10T02:02:57;2.70;;;1.50;;
7479;SDS011;3781;42.272;22.658;2023-04-10T02:05:24;2.87;;;1.77;;
7479;SDS011;3781;42.272;22.658;2023-04-10T02:08:01;1.90;;;1.67;;
7479;SDS011;3781;42.272;22.658;2023-04-10T02:10:40;2.40;;;1.33;;
7479;SDS011;3781;42.272;22.658;2023-04-10T02:13:10;6.67;;;1.77;;
7479;SDS011;3781;42.272;22.658;2023-04-10T02:15:41;5.83;;;2.57;;
7479;SDS011;3781;42.272;22.658;2023-04-10T02:18:13;2.40;;;1.60;;
7479;SDS011;3781;42.272;22.658;2023-04-10T02:20:41;4.80;;;2.33;;
7479;SDS011;3781;42.272;22.658;2023-04-10T02:23:08;1.73;;;1.40;;
7479;SDS011;3781;42.272;22.658;2023-04-10T02:25:36;2.97;;;0.97;;
7479;SDS011;3781;42.272;22.658;2023-04-10T02:28:03;7.03;;;1.63;;
7479;SDS011;3781;42.272;22.658;2023-04-10T02:30:30;6.77;;;2.20;;
7479;SDS011;3781;42.272;22.658;2023-04-10T02:32:57;3.17;;;1.80;;
7479;SDS011;3781;42.272;22.658;2023-04-10T02:35:25;2.43;;;1.63;;
7479;SDS011;3781;42.272;22.658;2023-04-10T02:37:53;1.60;;;0.90;;
7479;SDS011;3781;42.272;22.658;2023-04-10T02:40:20;3.40;;;2.00;;
7479;SDS011;3781;42.272;22.658;2023-04-10T02:42:47;4.23;;;1.73;;
7479;SDS011;3781;42.272;22.658;2023-04-10T02:45:13;2.60;;;1.40;;
7479;SDS011;3781;42.272;22.658;2023-04-10T02:47:40;1.67;;;1.37;;
7479;SDS011;3781;42.272;22.658;2023-04-10T02:50:07;1.80;;;1.13;;
7479;SDS011;3781;42.272;22.658;2023-04-10T02:52:36;2.10;;;1.90;;
7479;SDS011;3781;42.272;22.658;2023-04-10T02:55:03;3.30;;;1.53;;
7479;SDS011;3781;42.272;22.658;2023-04-10T02:57:31;2.43;;;1.97;;
7479;SDS011;3781;42.272;22.658;2023-04-10T02:59:58;4.10;;;1.63;;
7479;SDS011;3781;42.272;22.658;2023-04-10T03:02:24;3.47;;;1.70;;
7479;SDS011;3781;42.272;22.658;2023-04-10T03:04:51;4.63;;;1.10;;
7479;SDS011;3781;42.272;22.658;2023-04-10T03:07:18;3.33;;;2.10;;
7479;SDS011;3781;42.272;22.658;2023-04-10T03:09:46;1.90;;;1.53;;
7479;SDS011;3781;42.272;22.658;2023-04-10T03:12:13;3.70;;;2.67;;
7479;SDS011;3781;42.272;22.658;2023-04-10T03:14:40;2.33;;;1.97;;
7479;SDS011;3781;42.272;22.658;2023-04-10T03:17:07;2.60;;;2.20;;
7479;SDS011;3781;42.272;22.658;2023-04-10T03:19:34;1.50;;;1.37;;
7479;SDS011;3781;42.272;22.658;2023-04-10T03:22:01;1.67;;;1.43;;
7479;SDS011;3781;42.272;22.658;2023-04-10T03:24:28;5.77;;;2.40;;
7479;SDS011;3781;42.272;22.658;2023-04-10T03:26:56;3.27;;;1.63;;
7479;SDS011;3781;42.272;22.658;2023-04-10T03:29:23;7.70;;;2.13;;
7479;SDS011;3781;42.272;22.658;2023-04-10T03:31:49;1.83;;;1.73;;
7479;SDS011;3781;42.272;22.658;2023-04-10T03:34:16;2.03;;;1.87;;
7479;SDS011;3781;42.272;22.658;2023-04-10T03:36:43;4.70;;;2.07;;
7479;SDS011;3781;42.272;22.658;2023-04-10T03:39:10;1.63;;;1.53;;
7479;SDS011;3781;42.272;22.658;2023-04-10T03:41:37;0.97;;;0.97;;
7479;SDS011;3781;42.272;22.658;2023-04-10T03:44:05;2.77;;;2.27;;
7479;SDS011;3781;42.272;22.658;2023-04-10T03:46:32;4.00;;;1.03;;
7479;SDS011;3781;42.272;22.658;2023-04-10T03:48:59;1.70;;;1.07;;
7479;SDS011;3781;42.272;22.658;2023-04-10T03:51:25;3.50;;;1.77;;
7479;SDS011;3781;42.272;22.658;2023-04-10T03:53:52;3.10;;;1.53;;
7479;SDS011;3781;42.272;22.658;2023-04-10T03:56:19;7.67;;;2.40;;
7479;SDS011;3781;42.272;22.658;2023-04-10T03:58:46;2.43;;;2.07;;
7479;SDS011;3781;42.272;22.658;2023-04-10T04:01:14;3.77;;;2.77;;
7479;SDS011;3781;42.272;22.658;2023-04-10T04:03:41;1.93;;;1.80;;
7479;SDS011;3781;42.272;22.658;2023-04-10T04:06:08;4.03;;;1.43;;
7479;SDS011;3781;42.272;22.658;2023-04-10T04:08:35;2.77;;;1.97;;
7479;SDS011;3781;42.272;22.658;2023-04-10T04:11:02;2.80;;;1.77;;
7479;SDS011;3781;42.272;22.658;2023-04-10T04:13:30;2.80;;;1.53;;
7479;SDS011;3781;42.272;22.658;2023-04-10T04:15:56;3.83;;;2.60;;
7479;SDS011;3781;42.272;22.658;2023-04-10T04:18:25;2.37;;;1.00;;
7479;SDS011;3781;42.272;22.658;2023-04-10T04:20:51;0.97;;;0.97;;
7479;SDS011;3781;42.272;22.658;2023-04-10T04:23:18;2.10;;;2.00;;
7479;SDS011;3781;42.272;22.658;2023-04-10T04:25:45;3.80;;;1.67;;
7479;SDS011;3781;42.272;22.658;2023-04-10T04:28:11;2.27;;;1.90;;
7479;SDS011;3781;42.272;22.658;2023-04-10T04:30:40;2.03;;;1.20;;
7479;SDS011;3781;42.272;22.658;2023-04-10T04:33:06;0.93;;;0.93;;
7479;SDS011;3781;42.272;22.658;2023-04-10T04:35:34;4.13;;;1.80;;
7479;SDS011;3781;42.272;22.658;2023-04-10T04:38:01;4.60;;;1.27;;
7479;SDS011;3781;42.272;22.658;2023-04-10T04:40:28;5.83;;;3.13;;
7479;SDS011;3781;42.272;22.658;2023-04-10T04:42:55;2.73;;;1.80;;
7479;SDS011;3781;42.272;22.658;2023-04-10T04:45:22;5.50;;;1.70;;
7479;SDS011;3781;42.272;22.658;2023-04-10T04:47:48;1.90;;;1.57;;
7479;SDS011;3781;42.272;22.658;2023-04-10T04:50:15;2.20;;;1.70;;
7479;SDS011;3781;42.272;22.658;2023-04-10T04:52:43;2.47;;;1.70;;
7479;SDS011;3781;42.272;22.658;2023-04-10T04:55:10;2.13;;;1.90;;
7479;SDS011;3781;42.272;22.658;2023-04-10T04:57:37;2.30;;;1.93;;
7479;SDS011;3781;42.272;22.658;2023-04-10T05:00:04;4.93;;;1.70;;
7479;SDS011;3781;42.272;22.658;2023-04-10T05:02:32;5.40;;;2.23;;
7479;SDS011;3781;42.272;22.658;2023-04-10T05:04:58;2.43;;;0.93;;
7479;SDS011;3781;42.272;22.658;2023-04-10T05:07:25;6.20;;;2.53;;
7479;SDS011;3781;42.272;22.658;2023-04-10T05:09:53;7.83;;;3.33;;
7479;SDS011;3781;42.272;22.658;2023-04-10T05:12:20;3.93;;;2.87;;
7479;SDS011;3781;42.272;22.658;2023-04-10T05:14:47;12.77;;;2.93;;
7479;SDS011;3781;42.272;22.658;2023-04-10T05:17:14;2.87;;;1.67;;
7479;SDS011;3781;42.272;22.658;2023-04-10T05:19:41;2.10;;;1.43;;
7479;SDS011;3781;42.272;22.658;2023-04-10T05:22:07;2.67;;;1.90;;
7479;SDS011;3781;42.272;22.658;2023-04-10T05:24:34;3.27;;;1.83;;
7479;SDS011;3781;42.272;22.658;2023-04-10T05:27:02;6.60;;;4.33;;
7479;SDS011;3781;42.272;22.658;2023-04-10T05:29:29;5.73;;;2.60;;
7479;SDS011;3781;42.272;22.658;2023-04-10T05:31:56;3.57;;;2.00;;
7479;SDS011;3781;42.272;22.658;2023-04-10T05:34:22;4.57;;;2.53;;
7479;SDS011;3781;42.272;22.658;2023-04-10T05:36:49;2.73;;;2.17;;
7479;SDS011;3781;42.272;22.658;2023-04-10T05:39:16;3.83;;;3.00;;
7479;SDS011;3781;42.272;22.658;2023-04-10T05:41:43;4.17;;;2.63;;
7479;SDS011;3781;42.272;22.658;2023-04-10T05:44:11;3.10;;;2.27;;
7479;SDS011;3781;42.272;22.658;2023-04-10T05:46:38;4.00;;;2.80;;
7479;SDS011;3781;42.272;22.658;2023-04-10T05:49:04;3.80;;;2.03;;
7479;SDS011;3781;42.272;22.658;2023-04-10T05:51:31;3.53;;;2.57;;
7479;SDS011;3781;42.272;22.658;2023-04-10T05:53:58;6.30;;;4.40;;
7479;SDS011;3781;42.272;22.658;2023-04-10T05:56:25;7.87;;;4.83;;
7479;SDS011;3781;42.272;22.658;2023-04-10T05:58:51;5.27;;;3.37;;
7479;SDS011;3781;42.272;22.658;2023-04-10T06:01:20;6.33;;;4.00;;
7479;SDS011;3781;42.272;22.658;2023-04-10T06:03:46;7.90;;;4.43;;
7479;SDS011;3781;42.272;22.658;2023-04-10T06:06:13;4.50;;;3.33;;
7479;SDS011;3781;42.272;22.658;2023-04-10T06:08:40;4.07;;;2.43;;
7479;SDS011;3781;42.272;22.658;2023-04-10T06:11:07;5.10;;;2.87;;
7479;SDS011;3781;42.272;22.658;2023-04-10T06:13:34;8.90;;;4.00;;
7479;SDS011;3781;42.272;22.658;2023-04-10T06:16:04;8.87;;;4.70;;
7479;SDS011;3781;42.272;22.658;2023-04-10T06:18:33;8.93;;;3.83;;
7479;SDS011;3781;42.272;22.658;2023-04-10T06:21:01;9.17;;;4.80;;
7479;SDS011;3781;42.272;22.658;2023-04-10T06:23:27;7.20;;;4.87;;
7479;SDS011;3781;42.272;22.658;2023-04-10T06:25:54;18.07;;;6.70;;
7479;SDS011;3781;42.272;22.658;2023-04-10T06:28:21;12.47;;;4.87;;
7479;SDS011;3781;42.272;22.658;2023-04-10T06:30:48;7.93;;;4.07;;
7479;SDS011;3781;42.272;22.658;2023-04-10T06:33:15;7.83;;;3.73;;
7479;SDS011;3781;42.272;22.658;2023-04-10T06:35:43;6.30;;;3.33;;
7479;SDS011;3781;42.272;22.658;2023-04-10T06:38:10;5.17;;;2.60;;
7479;SDS011;3781;42.272;22.658;2023-04-10T06:40:36;7.83;;;3.57;;
7479;SDS011;3781;42.272;22.658;2023-04-10T06:43:03;3.07;;;2.20;;
7479;SDS011;3781;42.272;22.658;2023-04-10T06:45:30;3.20;;;2.83;;
7479;SDS011;3781;42.272;22.658;2023-04-10T06:47:57;3.73;;;3.43;;
7479;SDS011;3781;42.272;22.658;2023-04-10T06:50:23;2.60;;;2.40;;
7479;SDS011;3781;42.272;22.658;2023-04-10T06:52:52;12.77;;;4.83;;
7479;SDS011;3781;42.272;22.658;2023-04-10T06:55:20;7.97;;;3.27;;
7479;SDS011;3781;42.272;22.658;2023-04-10T06:57:47;3.63;;;2.50;;
7479;SDS011;3781;42.272;22.658;2023-04-10T07:00:14;3.43;;;2.20;;
7479;SDS011;3781;42.272;22.658;2023-04-10T07:02:41;6.00;;;2.47;;
7479;SDS011;3781;42.272;22.658;2023-04-10T07:05:08;3.07;;;2.77;;
7479;SDS011;3781;42.272;22.658;2023-04-10T07:07:35;4.57;;;2.67;;
7479;SDS011;3781;42.272;22.658;2023-04-10T07:10:03;4.70;;;1.93;;
7479;SDS011;3781;42.272;22.658;2023-04-10T07:12:31;6.17;;;2.77;;
7479;SDS011;3781;42.272;22.658;2023-04-10T07:14:58;2.83;;;2.13;;
7479;SDS011;3781;42.272;22.658;2023-04-10T07:17:24;2.03;;;1.73;;
7479;SDS011;3781;42.272;22.658;2023-04-10T07:19:51;4.63;;;3.03;;
7479;SDS011;3781;42.272;22.658;2023-04-10T07:22:18;4.17;;;2.30;;
7479;SDS011;3781;42.272;22.658;2023-04-10T07:24:45;4.67;;;2.37;;
7479;SDS011;3781;42.272;22.658;2023-04-10T07:27:13;4.37;;;2.03;;
7479;SDS011;3781;42.272;22.658;2023-04-10T07:29:41;6.10;;;2.57;;
7479;SDS011;3781;42.272;22.658;2023-04-10T07:32:07;4.33;;;2.07;;
7479;SDS011;3781;42.272;22.658;2023-04-10T07:34:34;7.20;;;1.97;;
7479;SDS011;3781;42.272;22.658;2023-04-10T07:37:01;7.07;;;3.50;;
7479;SDS011;3781;42.272;22.658;2023-04-10T07:39:28;6.17;;;2.80;;
7479;SDS011;3781;42.272;22.658;2023-04-10T07:41:55;5.03;;;3.50;;
7479;SDS011;3781;42.272;22.658;2023-04-10T07:44:23;6.93;;;1.93;;
7479;SDS011;3781;42.272;22.658;2023-04-10T07:46:51;4.27;;;2.43;;
7479;SDS011;3781;42.272;22.658;2023-04-10T07:49:18;3.07;;;2.27;;
7479;SDS011;3781;42.272;22.658;2023-04-10T07:51:45;4.70;;;2.43;;
7479;SDS011;3781;42.272;22.658;2023-04-10T07:54:12;6.77;;;3.27;;
7479;SDS011;3781;42.272;22.658;2023-04-10T07:56:38;4.67;;;2.73;;
7479;SDS011;3781;42.272;22.658;2023-04-10T07:59:05;3.37;;;2.33;;
7479;SDS011;3781;42.272;22.658;2023-04-10T08:01:35;3.90;;;2.60;;
7479;SDS011;3781;42.272;22.658;2023-04-10T08:04:01;6.93;;;3.00;;
7479;SDS011;3781;42.272;22.658;2023-04-10T08:06:28;4.60;;;2.50;;
7479;SDS011;3781;42.272;22.658;2023-04-10T08:08:56;3.97;;;2.40;;
7479;SDS011;3781;42.272;22.658;2023-04-10T08:11:23;3.63;;;2.30;;
7479;SDS011;3781;42.272;22.658;2023-04-10T08:13:51;5.77;;;2.93;;
7479;SDS011;3781;42.272;22.658;2023-04-10T08:16:21;4.87;;;3.23;;
7479;SDS011;3781;42.272;22.658;2023-04-10T08:18:50;4.40;;;3.03;;
7479;SDS011;3781;42.272;22.658;2023-04-10T08:21:17;3.83;;;2.70;;
7479;SDS011;3781;42.272;22.658;2023-04-10T08:23:43;3.80;;;3.20;;
7479;SDS011;3781;42.272;22.658;2023-04-10T08:26:11;6.23;;;3.43;;
7479;SDS011;3781;42.272;22.658;2023-04-10T08:28:37;6.97;;;3.33;;
7479;SDS011;3781;42.272;22.658;2023-04-10T08:31:04;5.97;;;3.30;;
7479;SDS011;3781;42.272;22.658;2023-04-10T08:33:32;9.47;;;2.77;;
7479;SDS011;3781;42.272;22.658;2023-04-10T08:36:00;5.10;;;3.17;;
7479;SDS011;3781;42.272;22.658;2023-04-10T08:38:27;7.57;;;2.83;;
7479;SDS011;3781;42.272;22.658;2023-04-10T08:40:54;7.50;;;4.10;;
7479;SDS011;3781;42.272;22.658;2023-04-10T08:43:20;7.27;;;3.73;;
7479;SDS011;3781;42.272;22.658;2023-04-10T08:45:47;3.03;;;2.30;;
7479;SDS011;3781;42.272;22.658;2023-04-10T08:48:15;6.87;;;4.13;;
7479;SDS011;3781;42.272;22.658;2023-04-10T08:50:45;5.70;;;4.17;;
7479;SDS011;3781;42.272;22.658;2023-04-10T08:53:14;8.10;;;3.93;;
7479;SDS011;3781;42.272;22.658;2023-04-10T08:55:42;5.13;;;3.10;;
7479;SDS011;3781;42.272;22.658;2023-04-10T08:58:11;4.10;;;2.70;;
7479;SDS011;3781;42.272;22.658;2023-04-10T09:00:38;9.23;;;4.33;;
7479;SDS011;3781;42.272;22.658;2023-04-10T09:03:06;6.93;;;3.47;;
7479;SDS011;3781;42.272;22.658;2023-04-10T09:05:35;4.33;;;3.93;;
7479;SDS011;3781;42.272;22.658;2023-04-10T09:08:02;5.23;;;4.30;;
7479;SDS011;3781;42.272;22.658;2023-04-10T09:10:31;3.70;;;2.93;;
7479;SDS011;3781;42.272;22.658;2023-04-10T09:16:29;8.87;;;5.00;;
7479;SDS011;3781;42.272;22.658;2023-04-10T09:18:57;4.40;;;3.23;;
7479;SDS011;3781;42.272;22.658;2023-04-10T09:21:26;5.50;;;3.33;;
7479;SDS011;3781;42.272;22.658;2023-04-10T09:23:58;5.90;;;3.60;;
7479;SDS011;3781;42.272;22.658;2023-04-10T09:26:27;4.17;;;2.97;;
7479;SDS011;3781;42.272;22.658;2023-04-10T09:28:59;8.90;;;4.20;;
7479;SDS011;3781;42.272;22.658;2023-04-10T09:31:27;7.27;;;3.27;;
7479;SDS011;3781;42.272;22.658;2023-04-10T09:34:05;5.53;;;3.70;;
7479;SDS011;3781;42.272;22.658;2023-04-10T09:36:33;6.30;;;3.03;;
7479;SDS011;3781;42.272;22.658;2023-04-10T09:39:00;7.43;;;3.80;;
7479;SDS011;3781;42.272;22.658;2023-04-10T09:41:29;4.13;;;3.33;;
7479;SDS011;3781;42.272;22.658;2023-04-10T09:44:05;17.03;;;5.03;;
7479;SDS011;3781;42.272;22.658;2023-04-10T09:46:32;4.10;;;3.03;;
7479;SDS011;3781;42.272;22.658;2023-04-10T09:49:00;7.17;;;3.90;;
7479;SDS011;3781;42.272;22.658;2023-04-10T09:51:29;4.07;;;2.93;;
7479;SDS011;3781;42.272;22.658;2023-04-10T09:53:58;5.07;;;3.47;;
7479;SDS011;3781;42.272;22.658;2023-04-10T09:56:25;7.30;;;3.20;;
7479;SDS011;3781;42.272;22.658;2023-04-10T09:58:56;5.33;;;2.63;;
7479;SDS011;3781;42.272;22.658;2023-04-10T10:01:24;3.77;;;3.37;;
7479;SDS011;3781;42.272;22.658;2023-04-10T10:03:53;7.07;;;3.00;;
7479;SDS011;3781;42.272;22.658;2023-04-10T10:06:20;5.17;;;2.70;;
7479;SDS011;3781;42.272;22.658;2023-04-10T10:08:47;3.73;;;2.07;;
7479;SDS011;3781;42.272;22.658;2023-04-10T10:11:15;3.30;;;2.50;;
7479;SDS011;3781;42.272;22.658;2023-04-10T10:13:46;3.97;;;3.27;;
7479;SDS011;3781;42.272;22.658;2023-04-10T10:16:19;2.93;;;2.17;;
7479;SDS011;3781;42.272;22.658;2023-04-10T10:18:50;3.53;;;2.93;;
7479;SDS011;3781;42.272;22.658;2023-04-10T10:21:22;5.73;;;3.57;;
7479;SDS011;3781;42.272;22.658;2023-04-10T10:23:50;9.03;;;3.50;;
7479;SDS011;3781;42.272;22.658;2023-04-10T10:26:19;5.43;;;3.20;;
7479;SDS011;3781;42.272;22.658;2023-04-10T10:28:48;4.23;;;2.83;;
7479;SDS011;3781;42.272;22.658;2023-04-10T10:31:16;4.13;;;2.07;;
7479;SDS011;3781;42.272;22.658;2023-04-10T10:33:46;5.73;;;3.00;;
7479;SDS011;3781;42.272;22.658;2023-04-10T10:36:13;3.33;;;3.03;;
7479;SDS011;3781;42.272;22.658;2023-04-10T10:38:46;4.00;;;2.73;;
7479;SDS011;3781;42.272;22.658;2023-04-10T10:41:21;6.27;;;3.27;;
7479;SDS011;3781;42.272;22.658;2023-04-10T10:43:54;2.07;;;1.83;;
7479;SDS011;3781;42.272;22.658;2023-04-10T10:46:31;2.77;;;2.47;;
7479;SDS011;3781;42.272;22.658;2023-04-10T10:49:03;3.87;;;2.17;;
7479;SDS011;3781;42.272;22.658;2023-04-10T10:54:26;4.43;;;2.87;;
7479;SDS011;3781;42.272;22.658;2023-04-10T10:56:54;8.37;;;2.43;;
7479;SDS011;3781;42.272;22.658;2023-04-10T11:02:22;4.63;;;3.90;;
7479;SDS011;3781;42.272;22.658;2023-04-10T11:04:49;3.77;;;2.33;;
7479;SDS011;3781;42.272;22.658;2023-04-10T11:07:16;3.90;;;2.30;;
7479;SDS011;3781;42.272;22.658;2023-04-10T11:09:47;4.70;;;2.90;;
7479;SDS011;3781;42.272;22.658;2023-04-10T11:12:16;3.67;;;2.50;;
7479;SDS011;3781;42.272;22.658;2023-04-10T11:14:44;6.50;;;2.47;;
7479;SDS011;3781;42.272;22.658;2023-04-10T11:20:18;4.90;;;2.63;;
7479;SDS011;3781;42.272;22.658;2023-04-10T11:25:45;5.07;;;2.70;;
7479;SDS011;3781;42.272;22.658;2023-04-10T11:28:33;3.77;;;1.93;;
7479;SDS011;3781;42.272;22.658;2023-04-10T11:33:45;3.73;;;2.17;;
7479;SDS011;3781;42.272;22.658;2023-04-10T11:36:13;2.50;;;1.90;;
7479;SDS011;3781;42.272;22.658;2023-04-10T11:38:51;5.20;;;1.60;;
7479;SDS011;3781;42.272;22.658;2023-04-10T11:41:19;5.87;;;1.97;;
7479;SDS011;3781;42.272;22.658;2023-04-10T11:43:49;2.13;;;1.80;;
7479;SDS011;3781;42.272;22.658;2023-04-10T11:46:17;2.93;;;1.93;;
7479;SDS011;3781;42.272;22.658;2023-04-10T11:48:45;3.67;;;2.07;;
7479;SDS011;3781;42.272;22.658;2023-04-10T11:51:12;2.23;;;1.73;;
7479;SDS011;3781;42.272;22.658;2023-04-10T11:53:40;3.47;;;2.97;;
7479;SDS011;3781;42.272;22.658;2023-04-10T11:56:14;3.77;;;2.13;;
7479;SDS011;3781;42.272;22.658;2023-04-10T11:58:41;4.43;;;2.20;;
7479;SDS011;3781;42.272;22.658;2023-04-10T12:01:08;2.17;;;2.00;;
7479;SDS011;3781;42.272;22.658;2023-04-10T12:03:39;2.90;;;2.40;;
7479;SDS011;3781;42.272;22.658;2023-04-10T12:06:09;2.57;;;2.37;;
7479;SDS011;3781;42.272;22.658;2023-04-10T12:08:38;2.10;;;1.83;;
7479;SDS011;3781;42.272;22.658;2023-04-10T12:11:06;2.23;;;1.97;;
7479;SDS011;3781;42.272;22.658;2023-04-10T12:13:34;2.87;;;2.27;;
7479;SDS011;3781;42.272;22.658;2023-04-10T12:16:02;6.43;;;3.17;;
7479;SDS011;3781;42.272;22.658;2023-04-10T12:18:29;5.37;;;3.00;;
7479;SDS011;3781;42.272;22.658;2023-04-10T12:20:57;2.43;;;2.00;;
7479;SDS011;3781;42.272;22.658;2023-04-10T12:23:26;5.30;;;2.67;;
7479;SDS011;3781;42.272;22.658;2023-04-10T12:26:04;6.83;;;2.40;;
7479;SDS011;3781;42.272;22.658;2023-04-10T12:28:33;3.10;;;2.73;;
7479;SDS011;3781;42.272;22.658;2023-04-10T12:31:00;8.00;;;2.83;;
7479;SDS011;3781;42.272;22.658;2023-04-10T12:33:28;4.27;;;2.87;;
7479;SDS011;3781;42.272;22.658;2023-04-10T12:35:55;3.80;;;2.70;;
7479;SDS011;3781;42.272;22.658;2023-04-10T12:38:36;4.47;;;2.70;;
7479;SDS011;3781;42.272;22.658;2023-04-10T12:41:04;2.53;;;1.90;;
7479;SDS011;3781;42.272;22.658;2023-04-10T12:43:32;2.90;;;1.87;;
7479;SDS011;3781;42.272;22.658;2023-04-10T12:45:59;2.70;;;2.20;;
7479;SDS011;3781;42.272;22.658;2023-04-10T12:48:27;3.10;;;2.00;;
7479;SDS011;3781;42.272;22.658;2023-04-10T12:50:53;3.70;;;2.27;;
7479;SDS011;3781;42.272;22.658;2023-04-10T12:53:20;5.13;;;2.13;;
7479;SDS011;3781;42.272;22.658;2023-04-10T12:55:58;2.50;;;2.00;;
7479;SDS011;3781;42.272;22.658;2023-04-10T12:58:30;2.47;;;1.87;;
7479;SDS011;3781;42.272;22.658;2023-04-10T13:00:58;3.33;;;2.20;;
7479;SDS011;3781;42.272;22.658;2023-04-10T13:03:28;4.63;;;3.07;;
7479;SDS011;3781;42.272;22.658;2023-04-10T13:05:55;6.53;;;3.30;;
7479;SDS011;3781;42.272;22.658;2023-04-10T13:08:22;4.40;;;3.47;;
7479;SDS011;3781;42.272;22.658;2023-04-10T13:10:49;3.17;;;2.60;;
7479;SDS011;3781;42.272;22.658;2023-04-10T13:13:17;5.67;;;2.47;;
7479;SDS011;3781;42.272;22.658;2023-04-10T13:15:44;4.73;;;2.47;;
7479;SDS011;3781;42.272;22.658;2023-04-10T13:18:11;1.87;;;1.67;;
7479;SDS011;3781;42.272;22.658;2023-04-10T13:20:39;5.03;;;2.53;;
7479;SDS011;3781;42.272;22.658;2023-04-10T13:23:06;2.83;;;2.00;;
7479;SDS011;3781;42.272;22.658;2023-04-10T13:25:35;4.30;;;2.80;;
7479;SDS011;3781;42.272;22.658;2023-04-10T13:28:03;2.63;;;2.13;;
7479;SDS011;3781;42.272;22.658;2023-04-10T13:30:36;3.77;;;1.90;;
7479;SDS011;3781;42.272;22.658;2023-04-10T13:33:04;3.47;;;2.03;;
7479;SDS011;3781;42.272;22.658;2023-04-10T13:35:31;6.93;;;2.60;;
7479;SDS011;3781;42.272;22.658;2023-04-10T13:37:58;4.77;;;2.90;;
7479;SDS011;3781;42.272;22.658;2023-04-10T13:40:26;3.90;;;2.07;;
7479;SDS011;3781;42.272;22.658;2023-04-10T13:42:53;3.87;;;2.70;;
7479;SDS011;3781;42.272;22.658;2023-04-10T13:45:19;3.57;;;2.50;;
7479;SDS011;3781;42.272;22.658;2023-04-10T13:47:48;3.90;;;2.53;;
7479;SDS011;3781;42.272;22.658;2023-04-10T13:50:14;18.70;;;2.07;;
7479;SDS011;3781;42.272;22.658;2023-04-10T13:52:41;2.00;;;1.73;;
7479;SDS011;3781;42.272;22.658;2023-04-10T13:55:08;4.63;;;3.17;;
7479;SDS011;3781;42.272;22.658;2023-04-10T13:57:35;2.93;;;2.40;;
7479;SDS011;3781;42.272;22.658;2023-04-10T14:00:02;6.27;;;3.27;;
7479;SDS011;3781;42.272;22.658;2023-04-10T14:02:29;5.37;;;3.40;;
7479;SDS011;3781;42.272;22.658;2023-04-10T14:04:59;6.40;;;3.53;;
7479;SDS011;3781;42.272;22.658;2023-04-10T14:07:26;4.97;;;3.33;;
7479;SDS011;3781;42.272;22.658;2023-04-10T14:09:52;5.57;;;2.93;;
7479;SDS011;3781;42.272;22.658;2023-04-10T14:12:19;7.50;;;3.80;;
7479;SDS011;3781;42.272;22.658;2023-04-10T14:14:47;7.77;;;3.97;;
7479;SDS011;3781;42.272;22.658;2023-04-10T14:17:14;7.27;;;4.30;;
7479;SDS011;3781;42.272;22.658;2023-04-10T14:19:41;2.93;;;2.73;;
7479;SDS011;3781;42.272;22.658;2023-04-10T14:22:09;3.63;;;2.90;;
7479;SDS011;3781;42.272;22.658;2023-04-10T14:24:36;2.93;;;2.50;;
7479;SDS011;3781;42.272;22.658;2023-04-10T14:27:02;4.90;;;2.77;;
7479;SDS011;3781;42.272;22.658;2023-04-10T14:29:29;2.60;;;2.00;;
7479;SDS011;3781;42.272;22.658;2023-04-10T14:31:56;4.23;;;3.47;;
7479;SDS011;3781;42.272;22.658;2023-04-10T14:34:23;6.27;;;3.13;;
7479;SDS011;3781;42.272;22.658;2023-04-10T14:36:50;4.47;;;2.20;;
7479;SDS011;3781;42.272;22.658;2023-04-10T14:39:21;2.80;;;1.97;;
7479;SDS011;3781;42.272;22.658;2023-04-10T14:41:48;3.07;;;1.83;;
7479;SDS011;3781;42.272;22.658;2023-04-10T14:44:15;4.83;;;2.53;;
7479;SDS011;3781;42.272;22.658;2023-04-10T14:46:42;2.00;;;1.90;;
7479;SDS011;3781;42.272;22.658;2023-04-10T14:49:09;7.67;;;2.33;;
7479;SDS011;3781;42.272;22.658;2023-04-10T14:51:36;2.70;;;1.90;;
7479;SDS011;3781;42.272;22.658;2023-04-10T14:54:03;10.03;;;3.77;;
7479;SDS011;3781;42.272;22.658;2023-04-10T14:56:31;4.70;;;3.57;;
7479;SDS011;3781;42.272;22.658;2023-04-10T14:58:58;4.53;;;2.17;;
7479;SDS011;3781;42.272;22.658;2023-04-10T15:01:25;2.40;;;2.20;;
7479;SDS011;3781;42.272;22.658;2023-04-10T15:03:52;4.77;;;4.03;;
7479;SDS011;3781;42.272;22.658;2023-04-10T15:06:18;7.13;;;3.63;;
7479;SDS011;3781;42.272;22.658;2023-04-10T15:08:45;7.20;;;3.87;;
7479;SDS011;3781;42.272;22.658;2023-04-10T15:11:12;9.20;;;3.47;;
7479;SDS011;3781;42.272;22.658;2023-04-10T15:13:41;3.67;;;2.50;;
7479;SDS011;3781;42.272;22.658;2023-04-10T15:16:07;2.70;;;2.27;;
7479;SDS011;3781;42.272;22.658;2023-04-10T15:18:36;2.43;;;2.00;;
7479;SDS011;3781;42.272;22.658;2023-04-10T15:21:03;3.27;;;1.90;;
7479;SDS011;3781;42.272;22.658;2023-04-10T15:23:30;3.77;;;2.37;;